sensor_id;sensor_type;location;lat;lon;timestamp;temperature;humidity
51011;DHT22;37038;50.182;8.624;2022-12-20T00:00:21;2.50;99.90
51011;DHT22;37038;50.182;8.624;2022-12-20T00:03:09;2.40;99.90
51011;DHT22;37038;50.182;8.624;2022-12-20T00:05:58;2.40;99.90
51011;DHT22;37038;50.182;8.624;2022-12-20T00:08:56;2.40;99.90
51011;DHT22;37038;50.182;8.624;2022-12-20T00:11:47;2.50;99.90
51011;DHT22;37038;50.182;8.624;2022-12-20T00:14:40;2.60;99.90
51011;DHT22;37038;50.182;8.624;2022-12-20T00:17:28;2.70;99.90
51011;DHT22;37038;50.182;8.624;2022-12-20T00:20:25;2.70;99.90
51011;DHT22;37038;50.182;8.624;2022-12-20T00:23:14;2.90;99.90
51011;DHT22;37038;50.182;8.624;2022-12-20T00:26:04;3.00;99.90
51011;DHT22;37038;50.182;8.624;2022-12-20T00:28:57;3.10;99.90
51011;DHT22;37038;50.182;8.624;2022-12-20T00:31:47;3.40;99.90
51011;DHT22;37038;50.182;8.624;2022-12-20T00:34:35;3.30;99.90
51011;DHT22;37038;50.182;8.624;2022-12-20T00:37:23;3.10;99.90
51011;DHT22;37038;50.182;8.624;2022-12-20T00:40:12;3.20;99.90
51011;DHT22;37038;50.182;8.624;2022-12-20T00:43:00;3.20;99.90
51011;DHT22;37038;50.182;8.624;2022-12-20T00:45:49;3.10;99.90
51011;DHT22;37038;50.182;8.624;2022-12-20T00:48:39;2.80;99.90
51011;DHT22;37038;50.182;8.624;2022-12-20T00:51:30;2.70;99.90
51011;DHT22;37038;50.182;8.624;2022-12-20T00:54:27;2.60;99.90
51011;DHT22;37038;50.182;8.624;2022-12-20T00:57:16;2.60;99.90
51011;DHT22;37038;50.182;8.624;2022-12-20T01:00:05;2.60;99.90
51011;DHT22;37038;50.182;8.624;2022-12-20T01:02:56;2.70;99.90
51011;DHT22;37038;50.182;8.624;2022-12-20T01:06:00;2.90;99.90
51011;DHT22;37038;50.182;8.624;2022-12-20T01:09:12;2.70;99.90
51011;DHT22;37038;50.182;8.624;2022-12-20T01:12:02;2.50;99.90
51011;DHT22;37038;50.182;8.624;2022-12-20T01:14:51;2.40;99.90
51011;DHT22;37038;50.182;8.624;2022-12-20T01:17:39;2.40;99.90
51011;DHT22;37038;50.182;8.624;2022-12-20T01:20:38;2.90;99.90
51011;DHT22;37038;50.182;8.624;2022-12-20T01:23:27;3.30;99.90
51011;DHT22;37038;50.182;8.624;2022-12-20T01:26:18;3.60;99.90
51011;DHT22;37038;50.182;8.624;2022-12-20T01:29:12;3.80;99.90
51011;DHT22;37038;50.182;8.624;2022-12-20T01:32:01;4.00;99.90
51011;DHT22;37038;50.182;8.624;2022-12-20T01:34:54;4.00;99.90
51011;DHT22;37038;50.182;8.624;2022-12-20T01:37:43;3.80;99.90
51011;DHT22;37038;50.182;8.624;2022-12-20T01:40:31;3.70;99.90
51011;DHT22;37038;50.182;8.624;2022-12-20T01:43:20;3.70;99.90
51011;DHT22;37038;50.182;8.624;2022-12-20T01:46:08;3.20;99.90
51011;DHT22;37038;50.182;8.624;2022-12-20T01:52:05;3.10;99.90
51011;DHT22;37038;50.182;8.624;2022-12-20T01:55:03;2.90;99.90
51011;DHT22;37038;50.182;8.624;2022-12-20T01:57:55;3.00;99.90
51011;DHT22;37038;50.182;8.624;2022-12-20T02:00:46;3.50;99.90
51011;DHT22;37038;50.182;8.624;2022-12-20T02:03:36;3.70;99.90
51011;DHT22;37038;50.182;8.624;2022-12-20T02:06:25;3.80;99.90
51011;DHT22;37038;50.182;8.624;2022-12-20T02:09:14;4.00;99.90
51011;DHT22;37038;50.182;8.624;2022-12-20T02:12:15;4.00;99.90
51011;DHT22;37038;50.182;8.624;2022-12-20T02:15:56;4.00;99.90
51011;DHT22;37038;50.182;8.624;2022-12-20T02:18:41;3.90;99.90
51011;DHT22;37038;50.182;8.624;2022-12-20T02:21:42;3.40;99.90
51011;DHT22;37038;50.182;8.624;2022-12-20T02:25:20;3.30;99.90
51011;DHT22;37038;50.182;8.624;2022-12-20T02:28:37;3.40;99.90
51011;DHT22;37038;50.182;8.624;2022-12-20T02:31:37;3.40;99.90
51011;DHT22;37038;50.182;8.624;2022-12-20T02:34:38;3.60;99.90
51011;DHT22;37038;50.182;8.624;2022-12-20T02:37:27;3.40;99.90
51011;DHT22;37038;50.182;8.624;2022-12-20T02:40:18;3.40;99.90
51011;DHT22;37038;50.182;8.624;2022-12-20T02:43:09;3.50;99.90
51011;DHT22;37038;50.182;8.624;2022-12-20T02:46:21;3.80;99.90
51011;DHT22;37038;50.182;8.624;2022-12-20T02:49:16;3.60;99.90
51011;DHT22;37038;50.182;8.624;2022-12-20T02:52:08;3.60;99.90
51011;DHT22;37038;50.182;8.624;2022-12-20T02:55:01;3.50;99.90
51011;DHT22;37038;50.182;8.624;2022-12-20T02:58:04;3.50;99.90
51011;DHT22;37038;50.182;8.624;2022-12-20T03:00:59;3.30;99.90
51011;DHT22;37038;50.182;8.624;2022-12-20T03:03:52;3.40;99.90
51011;DHT22;37038;50.182;8.624;2022-12-20T03:07:12;3.30;99.90
51011;DHT22;37038;50.182;8.624;2022-12-20T03:10:04;3.30;99.90
51011;DHT22;37038;50.182;8.624;2022-12-20T03:12:52;3.40;99.90
51011;DHT22;37038;50.182;8.624;2022-12-20T03:15:44;3.50;99.90
51011;DHT22;37038;50.182;8.624;2022-12-20T03:18:33;3.60;99.90
51011;DHT22;37038;50.182;8.624;2022-12-20T03:21:25;3.70;99.90
51011;DHT22;37038;50.182;8.624;2022-12-20T03:24:13;3.70;99.90
51011;DHT22;37038;50.182;8.624;2022-12-20T03:27:05;3.70;99.90
51011;DHT22;37038;50.182;8.624;2022-12-20T03:29:55;3.80;99.90
51011;DHT22;37038;50.182;8.624;2022-12-20T03:32:44;3.70;99.90
51011;DHT22;37038;50.182;8.624;2022-12-20T03:35:38;3.80;99.90
51011;DHT22;37038;50.182;8.624;2022-12-20T03:38:27;3.60;99.90
51011;DHT22;37038;50.182;8.624;2022-12-20T03:41:19;3.60;99.90
51011;DHT22;37038;50.182;8.624;2022-12-20T03:44:08;3.70;99.90
51011;DHT22;37038;50.182;8.624;2022-12-20T03:46:57;3.80;99.90
51011;DHT22;37038;50.182;8.624;2022-12-20T03:49:48;3.70;99.90
51011;DHT22;37038;50.182;8.624;2022-12-20T03:52:38;3.60;99.90
51011;DHT22;37038;50.182;8.624;2022-12-20T03:55:29;3.60;99.90
51011;DHT22;37038;50.182;8.624;2022-12-20T03:58:20;3.60;99.90
51011;DHT22;37038;50.182;8.624;2022-12-20T04:01:23;3.60;99.90
51011;DHT22;37038;50.182;8.624;2022-12-20T04:04:27;3.40;99.90
51011;DHT22;37038;50.182;8.624;2022-12-20T04:07:22;3.50;99.90
51011;DHT22;37038;50.182;8.624;2022-12-20T04:10:11;3.30;99.90
51011;DHT22;37038;50.182;8.624;2022-12-20T04:13:06;3.20;99.90
51011;DHT22;37038;50.182;8.624;2022-12-20T04:15:57;3.20;99.90
51011;DHT22;37038;50.182;8.624;2022-12-20T04:18:51;3.40;99.90
51011;DHT22;37038;50.182;8.624;2022-12-20T04:21:43;3.50;99.90
51011;DHT22;37038;50.182;8.624;2022-12-20T04:24:34;3.60;99.90
51011;DHT22;37038;50.182;8.624;2022-12-20T04:27:27;3.70;99.90
51011;DHT22;37038;50.182;8.624;2022-12-20T04:30:19;3.60;99.90
51011;DHT22;37038;50.182;8.624;2022-12-20T04:33:11;3.60;99.90
51011;DHT22;37038;50.182;8.624;2022-12-20T04:36:02;3.60;99.90
51011;DHT22;37038;50.182;8.624;2022-12-20T04:38:51;3.70;99.90
51011;DHT22;37038;50.182;8.624;2022-12-20T04:41:41;3.70;99.90
51011;DHT22;37038;50.182;8.624;2022-12-20T04:44:37;3.70;99.90
51011;DHT22;37038;50.182;8.624;2022-12-20T04:47:25;3.80;99.90
51011;DHT22;37038;50.182;8.624;2022-12-20T04:50:14;3.80;99.90
51011;DHT22;37038;50.182;8.624;2022-12-20T04:53:08;3.90;99.90
51011;DHT22;37038;50.182;8.624;2022-12-20T04:56:22;3.90;99.90
51011;DHT22;37038;50.182;8.624;2022-12-20T04:59:11;3.80;99.90
51011;DHT22;37038;50.182;8.624;2022-12-20T05:02:00;3.80;99.90
51011;DHT22;37038;50.182;8.624;2022-12-20T05:04:50;3.50;99.90
51011;DHT22;37038;50.182;8.624;2022-12-20T05:07:39;3.50;99.90
51011;DHT22;37038;50.182;8.624;2022-12-20T05:10:27;3.60;99.90
51011;DHT22;37038;50.182;8.624;2022-12-20T05:13:15;3.20;99.90
51011;DHT22;37038;50.182;8.624;2022-12-20T05:16:06;3.30;99.90
51011;DHT22;37038;50.182;8.624;2022-12-20T05:18:58;3.50;99.90
51011;DHT22;37038;50.182;8.624;2022-12-20T05:21:48;3.70;99.90
51011;DHT22;37038;50.182;8.624;2022-12-20T05:24:55;3.80;99.90
51011;DHT22;37038;50.182;8.624;2022-12-20T05:28:01;4.00;99.90
51011;DHT22;37038;50.182;8.624;2022-12-20T05:30:50;4.00;99.90
51011;DHT22;37038;50.182;8.624;2022-12-20T05:33:40;3.90;99.90
51011;DHT22;37038;50.182;8.624;2022-12-20T05:36:40;3.90;99.90
51011;DHT22;37038;50.182;8.624;2022-12-20T05:39:28;3.40;99.90
51011;DHT22;37038;50.182;8.624;2022-12-20T05:42:16;3.30;99.90
51011;DHT22;37038;50.182;8.624;2022-12-20T05:45:05;3.30;99.90
51011;DHT22;37038;50.182;8.624;2022-12-20T05:47:56;3.50;99.90
51011;DHT22;37038;50.182;8.624;2022-12-20T05:50:45;3.80;99.90
51011;DHT22;37038;50.182;8.624;2022-12-20T05:53:36;3.80;99.90
51011;DHT22;37038;50.182;8.624;2022-12-20T05:56:27;3.80;99.90
51011;DHT22;37038;50.182;8.624;2022-12-20T06:01:55;4.10;99.90
51011;DHT22;37038;50.182;8.624;2022-12-20T06:04:47;4.00;99.90
51011;DHT22;37038;50.182;8.624;2022-12-20T06:07:35;4.10;99.90
51011;DHT22;37038;50.182;8.624;2022-12-20T06:10:29;4.00;99.90
51011;DHT22;37038;50.182;8.624;2022-12-20T06:13:18;4.10;99.90
51011;DHT22;37038;50.182;8.624;2022-12-20T06:16:11;4.30;99.90
51011;DHT22;37038;50.182;8.624;2022-12-20T06:19:02;4.20;99.90
51011;DHT22;37038;50.182;8.624;2022-12-20T06:21:50;4.30;99.90
51011;DHT22;37038;50.182;8.624;2022-12-20T06:24:56;4.50;99.90
51011;DHT22;37038;50.182;8.624;2022-12-20T06:28:08;4.40;99.90
51011;DHT22;37038;50.182;8.624;2022-12-20T06:31:05;4.20;99.90
51011;DHT22;37038;50.182;8.624;2022-12-20T06:34:07;4.30;99.90
51011;DHT22;37038;50.182;8.624;2022-12-20T06:36:58;4.20;99.90
51011;DHT22;37038;50.182;8.624;2022-12-20T06:39:53;4.30;99.90
51011;DHT22;37038;50.182;8.624;2022-12-20T06:42:45;4.20;99.90
51011;DHT22;37038;50.182;8.624;2022-12-20T06:45:36;4.10;99.90
51011;DHT22;37038;50.182;8.624;2022-12-20T06:48:32;3.70;99.90
51011;DHT22;37038;50.182;8.624;2022-12-20T06:51:24;3.40;99.90
51011;DHT22;37038;50.182;8.624;2022-12-20T06:54:13;3.70;99.90
51011;DHT22;37038;50.182;8.624;2022-12-20T06:57:04;3.60;99.90
51011;DHT22;37038;50.182;8.624;2022-12-20T06:59:58;3.30;99.90
51011;DHT22;37038;50.182;8.624;2022-12-20T07:02:53;3.20;99.90
51011;DHT22;37038;50.182;8.624;2022-12-20T07:05:50;3.00;99.90
51011;DHT22;37038;50.182;8.624;2022-12-20T07:08:45;2.90;99.90
51011;DHT22;37038;50.182;8.624;2022-12-20T07:11:34;2.90;99.90
51011;DHT22;37038;50.182;8.624;2022-12-20T07:14:24;2.90;99.90
51011;DHT22;37038;50.182;8.624;2022-12-20T07:17:13;3.20;99.90
51011;DHT22;37038;50.182;8.624;2022-12-20T07:20:02;3.30;99.90
51011;DHT22;37038;50.182;8.624;2022-12-20T07:23:14;3.80;99.90
51011;DHT22;37038;50.182;8.624;2022-12-20T07:26:02;4.00;99.90
51011;DHT22;37038;50.182;8.624;2022-12-20T07:28:52;4.10;99.90
51011;DHT22;37038;50.182;8.624;2022-12-20T07:31:41;3.90;99.90
51011;DHT22;37038;50.182;8.624;2022-12-20T07:34:37;4.10;99.90
51011;DHT22;37038;50.182;8.624;2022-12-20T07:37:30;4.60;99.90
51011;DHT22;37038;50.182;8.624;2022-12-20T07:40:21;4.90;99.90
51011;DHT22;37038;50.182;8.624;2022-12-20T07:43:12;4.90;99.90
51011;DHT22;37038;50.182;8.624;2022-12-20T07:46:01;4.90;99.90
51011;DHT22;37038;50.182;8.624;2022-12-20T07:48:55;4.80;99.90
51011;DHT22;37038;50.182;8.624;2022-12-20T07:51:56;4.90;99.90
51011;DHT22;37038;50.182;8.624;2022-12-20T07:54:48;5.00;99.90
51011;DHT22;37038;50.182;8.624;2022-12-20T07:57:52;4.30;99.90
51011;DHT22;37038;50.182;8.624;2022-12-20T08:00:44;4.10;99.90
51011;DHT22;37038;50.182;8.624;2022-12-20T08:03:46;4.00;99.90
51011;DHT22;37038;50.182;8.624;2022-12-20T08:06:40;4.20;99.90
51011;DHT22;37038;50.182;8.624;2022-12-20T08:09:36;4.60;99.90
51011;DHT22;37038;50.182;8.624;2022-12-20T08:12:28;4.70;99.90
51011;DHT22;37038;50.182;8.624;2022-12-20T08:15:18;4.90;99.90
51011;DHT22;37038;50.182;8.624;2022-12-20T08:18:09;5.10;99.90
51011;DHT22;37038;50.182;8.624;2022-12-20T08:20:57;5.10;99.90
51011;DHT22;37038;50.182;8.624;2022-12-20T08:23:48;5.30;99.90
51011;DHT22;37038;50.182;8.624;2022-12-20T08:26:39;5.40;99.90
51011;DHT22;37038;50.182;8.624;2022-12-20T08:29:30;5.70;99.90
51011;DHT22;37038;50.182;8.624;2022-12-20T08:32:18;5.80;99.90
51011;DHT22;37038;50.182;8.624;2022-12-20T08:35:07;6.10;99.90
51011;DHT22;37038;50.182;8.624;2022-12-20T08:38:00;6.30;99.90
51011;DHT22;37038;50.182;8.624;2022-12-20T08:40:49;6.60;99.90
51011;DHT22;37038;50.182;8.624;2022-12-20T08:43:43;6.80;99.90
51011;DHT22;37038;50.182;8.624;2022-12-20T08:46:31;6.60;99.90
51011;DHT22;37038;50.182;8.624;2022-12-20T08:49:23;6.30;99.90
51011;DHT22;37038;50.182;8.624;2022-12-20T08:52:14;6.20;99.90
51011;DHT22;37038;50.182;8.624;2022-12-20T08:55:03;6.20;99.90
51011;DHT22;37038;50.182;8.624;2022-12-20T08:57:52;5.80;99.90
51011;DHT22;37038;50.182;8.624;2022-12-20T09:00:40;5.70;99.90
51011;DHT22;37038;50.182;8.624;2022-12-20T09:03:29;5.90;99.90
51011;DHT22;37038;50.182;8.624;2022-12-20T09:06:20;6.10;99.90
51011;DHT22;37038;50.182;8.624;2022-12-20T09:09:08;6.20;99.90
51011;DHT22;37038;50.182;8.624;2022-12-20T09:11:56;5.90;99.90
51011;DHT22;37038;50.182;8.624;2022-12-20T09:14:45;6.00;99.90
51011;DHT22;37038;50.182;8.624;2022-12-20T09:17:34;6.20;99.90
51011;DHT22;37038;50.182;8.624;2022-12-20T09:20:22;6.60;99.90
51011;DHT22;37038;50.182;8.624;2022-12-20T09:23:10;6.80;99.90
51011;DHT22;37038;50.182;8.624;2022-12-20T09:26:10;7.00;99.90
51011;DHT22;37038;50.182;8.624;2022-12-20T09:28:58;6.90;99.90
51011;DHT22;37038;50.182;8.624;2022-12-20T09:31:48;6.50;99.90
51011;DHT22;37038;50.182;8.624;2022-12-20T09:34:36;6.40;99.90
51011;DHT22;37038;50.182;8.624;2022-12-20T09:37:29;6.60;99.90
51011;DHT22;37038;50.182;8.624;2022-12-20T09:40:20;6.20;99.90
51011;DHT22;37038;50.182;8.624;2022-12-20T09:43:10;5.40;99.90
51011;DHT22;37038;50.182;8.624;2022-12-20T09:46:01;5.20;99.90
51011;DHT22;37038;50.182;8.624;2022-12-20T09:48:50;5.60;99.90
51011;DHT22;37038;50.182;8.624;2022-12-20T09:58:54;6.50;99.90
51011;DHT22;37038;50.182;8.624;2022-12-20T10:01:46;6.80;99.90
51011;DHT22;37038;50.182;8.624;2022-12-20T10:04:35;6.60;99.90
51011;DHT22;37038;50.182;8.624;2022-12-20T10:07:49;6.70;99.90
51011;DHT22;37038;50.182;8.624;2022-12-20T10:14:39;7.20;99.90
51011;DHT22;37038;50.182;8.624;2022-12-20T10:24:33;7.60;99.90
51011;DHT22;37038;50.182;8.624;2022-12-20T10:27:27;7.70;99.90
51011;DHT22;37038;50.182;8.624;2022-12-20T10:30:27;7.90;99.90
51011;DHT22;37038;50.182;8.624;2022-12-20T10:33:30;6.90;99.90
51011;DHT22;37038;50.182;8.624;2022-12-20T10:36:22;6.60;99.90
51011;DHT22;37038;50.182;8.624;2022-12-20T10:39:15;6.80;99.90
51011;DHT22;37038;50.182;8.624;2022-12-20T10:48:08;5.90;99.90
51011;DHT22;37038;50.182;8.624;2022-12-20T10:51:27;5.30;99.90
51011;DHT22;37038;50.182;8.624;2022-12-20T10:54:30;5.10;99.90
51011;DHT22;37038;50.182;8.624;2022-12-20T10:57:32;4.90;99.90
51011;DHT22;37038;50.182;8.624;2022-12-20T11:00:31;4.90;99.90
51011;DHT22;37038;50.182;8.624;2022-12-20T11:03:26;5.00;99.90
51011;DHT22;37038;50.182;8.624;2022-12-20T11:06:20;5.20;99.90
51011;DHT22;37038;50.182;8.624;2022-12-20T11:09:25;5.20;99.90
51011;DHT22;37038;50.182;8.624;2022-12-20T11:12:27;5.30;99.90
51011;DHT22;37038;50.182;8.624;2022-12-20T11:15:24;5.60;99.90
51011;DHT22;37038;50.182;8.624;2022-12-20T11:35:50;6.30;99.90
51011;DHT22;37038;50.182;8.624;2022-12-20T11:39:12;6.20;99.90
51011;DHT22;37038;50.182;8.624;2022-12-20T11:55:54;7.50;99.90
51011;DHT22;37038;50.182;8.624;2022-12-20T12:03:10;7.10;99.90
51011;DHT22;37038;50.182;8.624;2022-12-20T12:06:39;6.70;99.90
51011;DHT22;37038;50.182;8.624;2022-12-20T12:10:17;6.30;99.90
51011;DHT22;37038;50.182;8.624;2022-12-20T12:13:33;6.80;99.90
51011;DHT22;37038;50.182;8.624;2022-12-20T12:17:08;7.00;99.90
51011;DHT22;37038;50.182;8.624;2022-12-20T12:24:09;7.20;99.90
51011;DHT22;37038;50.182;8.624;2022-12-20T12:27:26;7.70;99.90
51011;DHT22;37038;50.182;8.624;2022-12-20T12:30:47;7.80;99.90
51011;DHT22;37038;50.182;8.624;2022-12-20T13:04:51;7.40;99.90
51011;DHT22;37038;50.182;8.624;2022-12-20T13:09:09;7.80;99.90
51011;DHT22;37038;50.182;8.624;2022-12-20T13:16:48;8.80;99.90
51011;DHT22;37038;50.182;8.624;2022-12-20T14:09:03;8.00;99.90
51011;DHT22;37038;50.182;8.624;2022-12-20T14:12:16;7.60;99.90
51011;DHT22;37038;50.182;8.624;2022-12-20T14:15:38;8.00;99.90
51011;DHT22;37038;50.182;8.624;2022-12-20T14:18:37;8.20;99.90
51011;DHT22;37038;50.182;8.624;2022-12-20T14:21:35;8.10;99.90
51011;DHT22;37038;50.182;8.624;2022-12-20T14:24:41;8.20;99.90
51011;DHT22;37038;50.182;8.624;2022-12-20T14:27:38;8.40;99.90
51011;DHT22;37038;50.182;8.624;2022-12-20T15:07:27;7.80;99.90
51011;DHT22;37038;50.182;8.624;2022-12-20T15:10:20;7.80;99.90
51011;DHT22;37038;50.182;8.624;2022-12-20T15:55:20;5.70;99.90
51011;DHT22;37038;50.182;8.624;2022-12-20T16:03:59;6.10;99.90
51011;DHT22;37038;50.182;8.624;2022-12-20T16:07:33;6.30;99.90
51011;DHT22;37038;50.182;8.624;2022-12-20T16:11:56;6.60;99.90
51011;DHT22;37038;50.182;8.624;2022-12-20T16:15:41;6.40;99.90
51011;DHT22;37038;50.182;8.624;2022-12-20T16:28:13;6.50;99.90
51011;DHT22;37038;50.182;8.624;2022-12-20T16:31:51;6.60;99.90
51011;DHT22;37038;50.182;8.624;2022-12-20T16:47:10;7.00;99.90
51011;DHT22;37038;50.182;8.624;2022-12-20T16:59:13;7.00;99.90
51011;DHT22;37038;50.182;8.624;2022-12-20T17:02:36;6.90;99.90
51011;DHT22;37038;50.182;8.624;2022-12-20T17:06:32;7.00;99.90
51011;DHT22;37038;50.182;8.624;2022-12-20T17:15:53;7.00;99.90
51011;DHT22;37038;50.182;8.624;2022-12-20T17:19:03;7.00;99.90
51011;DHT22;37038;50.182;8.624;2022-12-20T17:22:21;7.00;99.90
51011;DHT22;37038;50.182;8.624;2022-12-20T17:25:48;6.90;99.90
51011;DHT22;37038;50.182;8.624;2022-12-20T17:29:16;6.90;99.90
51011;DHT22;37038;50.182;8.624;2022-12-20T17:32:36;6.50;99.90
51011;DHT22;37038;50.182;8.624;2022-12-20T17:35:52;5.90;99.90
51011;DHT22;37038;50.182;8.624;2022-12-20T17:41:58;6.40;99.90
51011;DHT22;37038;50.182;8.624;2022-12-20T17:45:23;6.70;99.90
51011;DHT22;37038;50.182;8.624;2022-12-20T17:48:17;6.70;99.90
51011;DHT22;37038;50.182;8.624;2022-12-20T17:51:35;6.80;99.90
51011;DHT22;37038;50.182;8.624;2022-12-20T17:54:43;6.90;99.90
51011;DHT22;37038;50.182;8.624;2022-12-20T17:57:46;6.80;99.90
51011;DHT22;37038;50.182;8.624;2022-12-20T18:00:41;6.60;99.90
51011;DHT22;37038;50.182;8.624;2022-12-20T18:04:04;6.60;99.90
51011;DHT22;37038;50.182;8.624;2022-12-20T18:07:10;6.50;99.90
51011;DHT22;37038;50.182;8.624;2022-12-20T18:10:00;6.00;99.90
51011;DHT22;37038;50.182;8.624;2022-12-20T18:12:57;6.00;99.90
51011;DHT22;37038;50.182;8.624;2022-12-20T18:15:52;6.20;99.90
51011;DHT22;37038;50.182;8.624;2022-12-20T18:18:48;6.10;99.90
51011;DHT22;37038;50.182;8.624;2022-12-20T18:21:45;5.90;99.90
51011;DHT22;37038;50.182;8.624;2022-12-20T18:31:55;5.50;99.90
51011;DHT22;37038;50.182;8.624;2022-12-20T18:37:28;5.80;99.90
51011;DHT22;37038;50.182;8.624;2022-12-20T18:40:19;6.10;99.90
51011;DHT22;37038;50.182;8.624;2022-12-20T18:43:07;6.40;99.90
51011;DHT22;37038;50.182;8.624;2022-12-20T18:46:21;6.20;99.90
51011;DHT22;37038;50.182;8.624;2022-12-20T18:49:12;5.90;99.90
51011;DHT22;37038;50.182;8.624;2022-12-20T18:52:00;6.00;99.90
51011;DHT22;37038;50.182;8.624;2022-12-20T18:54:54;6.50;99.90
51011;DHT22;37038;50.182;8.624;2022-12-20T18:57:48;6.70;99.90
51011;DHT22;37038;50.182;8.624;2022-12-20T19:00:36;6.80;99.90
51011;DHT22;37038;50.182;8.624;2022-12-20T19:03:25;6.80;99.90
51011;DHT22;37038;50.182;8.624;2022-12-20T19:06:13;6.70;99.90
51011;DHT22;37038;50.182;8.624;2022-12-20T19:09:03;6.70;99.90
51011;DHT22;37038;50.182;8.624;2022-12-20T19:12:05;6.40;99.90
51011;DHT22;37038;50.182;8.624;2022-12-20T19:14:57;6.30;99.90
51011;DHT22;37038;50.182;8.624;2022-12-20T19:17:48;6.30;99.90
51011;DHT22;37038;50.182;8.624;2022-12-20T19:21:18;6.20;99.90
51011;DHT22;37038;50.182;8.624;2022-12-20T19:24:39;6.30;99.90
51011;DHT22;37038;50.182;8.624;2022-12-20T19:28:01;6.10;99.90
51011;DHT22;37038;50.182;8.624;2022-12-20T19:30:53;6.30;99.90
51011;DHT22;37038;50.182;8.624;2022-12-20T19:34:10;6.50;99.90
51011;DHT22;37038;50.182;8.624;2022-12-20T19:37:05;6.40;99.90
51011;DHT22;37038;50.182;8.624;2022-12-20T19:40:16;6.50;99.90
51011;DHT22;37038;50.182;8.624;2022-12-20T19:43:39;6.20;99.90
51011;DHT22;37038;50.182;8.624;2022-12-20T19:49:18;6.30;99.90
51011;DHT22;37038;50.182;8.624;2022-12-20T19:52:15;6.40;99.90
51011;DHT22;37038;50.182;8.624;2022-12-20T19:55:23;6.60;99.90
51011;DHT22;37038;50.182;8.624;2022-12-20T19:58:45;6.60;99.90
51011;DHT22;37038;50.182;8.624;2022-12-20T20:02:09;6.60;99.90
51011;DHT22;37038;50.182;8.624;2022-12-20T20:05:14;6.60;99.90
51011;DHT22;37038;50.182;8.624;2022-12-20T20:08:34;6.70;99.90
51011;DHT22;37038;50.182;8.624;2022-12-20T20:11:26;6.60;99.90
51011;DHT22;37038;50.182;8.624;2022-12-20T20:19:53;6.40;99.90
51011;DHT22;37038;50.182;8.624;2022-12-20T20:22:52;6.40;99.90
51011;DHT22;37038;50.182;8.624;2022-12-20T20:25:56;6.50;99.90
51011;DHT22;37038;50.182;8.624;2022-12-20T20:28:45;6.70;99.90
51011;DHT22;37038;50.182;8.624;2022-12-20T20:31:37;6.90;99.90
51011;DHT22;37038;50.182;8.624;2022-12-20T20:34:29;6.80;99.90
51011;DHT22;37038;50.182;8.624;2022-12-20T20:37:24;6.70;99.90
51011;DHT22;37038;50.182;8.624;2022-12-20T20:40:13;6.60;99.90
51011;DHT22;37038;50.182;8.624;2022-12-20T20:43:02;6.30;99.90
51011;DHT22;37038;50.182;8.624;2022-12-20T20:45:51;6.00;99.90
51011;DHT22;37038;50.182;8.624;2022-12-20T20:48:48;6.10;99.90
51011;DHT22;37038;50.182;8.624;2022-12-20T20:52:07;6.30;99.90
51011;DHT22;37038;50.182;8.624;2022-12-20T20:55:14;6.10;99.90
51011;DHT22;37038;50.182;8.624;2022-12-20T20:58:12;6.10;99.90
51011;DHT22;37038;50.182;8.624;2022-12-20T21:01:07;6.20;99.90
51011;DHT22;37038;50.182;8.624;2022-12-20T21:04:02;6.10;99.90
51011;DHT22;37038;50.182;8.624;2022-12-20T21:06:55;6.10;99.90
51011;DHT22;37038;50.182;8.624;2022-12-20T21:10:12;6.20;99.90
51011;DHT22;37038;50.182;8.624;2022-12-20T21:13:40;6.40;99.90
51011;DHT22;37038;50.182;8.624;2022-12-20T21:17:01;6.50;99.90
51011;DHT22;37038;50.182;8.624;2022-12-20T21:20:12;6.30;99.90
51011;DHT22;37038;50.182;8.624;2022-12-20T21:23:06;6.40;99.90
51011;DHT22;37038;50.182;8.624;2022-12-20T21:26:04;6.50;99.90
51011;DHT22;37038;50.182;8.624;2022-12-20T21:29:26;6.70;99.90
51011;DHT22;37038;50.182;8.624;2022-12-20T21:33:15;6.60;99.90
51011;DHT22;37038;50.182;8.624;2022-12-20T21:36:58;6.70;99.90
51011;DHT22;37038;50.182;8.624;2022-12-20T21:39:55;6.80;99.90
51011;DHT22;37038;50.182;8.624;2022-12-20T21:42:45;6.80;99.90
51011;DHT22;37038;50.182;8.624;2022-12-20T21:45:33;6.70;99.90
51011;DHT22;37038;50.182;8.624;2022-12-20T21:48:48;6.90;99.90
51011;DHT22;37038;50.182;8.624;2022-12-20T21:54:37;6.90;99.90
51011;DHT22;37038;50.182;8.624;2022-12-20T21:57:32;7.00;99.90
51011;DHT22;37038;50.182;8.624;2022-12-20T22:00:22;6.90;99.90
51011;DHT22;37038;50.182;8.624;2022-12-20T22:03:12;6.90;99.90
51011;DHT22;37038;50.182;8.624;2022-12-20T22:06:01;6.90;99.90
51011;DHT22;37038;50.182;8.624;2022-12-20T22:08:55;6.90;99.90
51011;DHT22;37038;50.182;8.624;2022-12-20T22:11:49;6.80;99.90
51011;DHT22;37038;50.182;8.624;2022-12-20T22:14:38;6.80;99.90
51011;DHT22;37038;50.182;8.624;2022-12-20T22:17:29;6.80;99.90
51011;DHT22;37038;50.182;8.624;2022-12-20T22:20:24;6.80;99.90
51011;DHT22;37038;50.182;8.624;2022-12-20T22:23:19;6.80;99.90
51011;DHT22;37038;50.182;8.624;2022-12-20T22:26:32;6.80;99.90
51011;DHT22;37038;50.182;8.624;2022-12-20T22:29:34;6.90;99.90
51011;DHT22;37038;50.182;8.624;2022-12-20T22:32:29;6.80;99.90
51011;DHT22;37038;50.182;8.624;2022-12-20T22:35:36;6.80;99.90
51011;DHT22;37038;50.182;8.624;2022-12-20T22:38:25;6.80;99.90
51011;DHT22;37038;50.182;8.624;2022-12-20T22:41:26;6.80;99.90
51011;DHT22;37038;50.182;8.624;2022-12-20T22:44:21;6.40;99.90
51011;DHT22;37038;50.182;8.624;2022-12-20T22:47:26;6.40;99.90
51011;DHT22;37038;50.182;8.624;2022-12-20T22:50:33;6.40;99.90
51011;DHT22;37038;50.182;8.624;2022-12-20T22:53:51;6.10;99.90
51011;DHT22;37038;50.182;8.624;2022-12-20T22:56:42;6.10;99.90
51011;DHT22;37038;50.182;8.624;2022-12-20T22:59:36;6.20;99.90
51011;DHT22;37038;50.182;8.624;2022-12-20T23:02:44;6.20;99.90
51011;DHT22;37038;50.182;8.624;2022-12-20T23:05:53;6.40;99.90
51011;DHT22;37038;50.182;8.624;2022-12-20T23:08:54;6.60;99.90
51011;DHT22;37038;50.182;8.624;2022-12-20T23:11:56;6.70;99.90
51011;DHT22;37038;50.182;8.624;2022-12-20T23:15:03;6.70;99.90
51011;DHT22;37038;50.182;8.624;2022-12-20T23:18:10;6.80;99.90
51011;DHT22;37038;50.182;8.624;2022-12-20T23:20:58;6.80;99.90
51011;DHT22;37038;50.182;8.624;2022-12-20T23:24:05;6.50;99.90
51011;DHT22;37038;50.182;8.624;2022-12-20T23:26:53;6.70;99.90
51011;DHT22;37038;50.182;8.624;2022-12-20T23:29:41;6.60;99.90
51011;DHT22;37038;50.182;8.624;2022-12-20T23:32:29;6.70;99.90
51011;DHT22;37038;50.182;8.624;2022-12-20T23:35:19;6.60;99.90
51011;DHT22;37038;50.182;8.624;2022-12-20T23:38:09;6.60;99.90
51011;DHT22;37038;50.182;8.624;2022-12-20T23:41:04;6.60;99.90
51011;DHT22;37038;50.182;8.624;2022-12-20T23:43:55;6.60;99.90
51011;DHT22;37038;50.182;8.624;2022-12-20T23:46:42;6.60;99.90
51011;DHT22;37038;50.182;8.624;2022-12-20T23:49:33;6.70;99.90
51011;DHT22;37038;50.182;8.624;2022-12-20T23:52:21;6.80;99.90
51011;DHT22;37038;50.182;8.624;2022-12-20T23:55:09;6.80;99.90
51011;DHT22;37038;50.182;8.624;2022-12-20T23:57:57;6.80;99.90
